sensor_id;sensor_type;location;lat;lon;timestamp;pressure;altitude;pressure_sealevel;temperature;humidity
49949;BME280;35840;45.982;8.890;2023-02-21T00:00:00;99065.28;;;5.96;72.82
49949;BME280;35840;45.982;8.890;2023-02-21T00:02:46;99068.59;;;6.01;71.25
49949;BME280;35840;45.982;8.890;2023-02-21T00:05:31;99060.25;;;5.95;71.19
49949;BME280;35840;45.982;8.890;2023-02-21T00:08:16;99055.94;;;5.97;71.04
49949;BME280;35840;45.982;8.890;2023-02-21T00:11:01;99052.41;;;6.01;71.32
49949;BME280;35840;45.982;8.890;2023-02-21T00:13:49;99043.16;;;5.98;70.99
49949;BME280;35840;45.982;8.890;2023-02-21T00:16:34;99046.81;;;5.88;72.00
49949;BME280;35840;45.982;8.890;2023-02-21T00:19:19;99048.66;;;5.84;72.51
49949;BME280;35840;45.982;8.890;2023-02-21T00:22:05;99040.78;;;5.91;71.55
49949;BME280;35840;45.982;8.890;2023-02-21T00:24:50;99035.69;;;5.91;71.26
49949;BME280;35840;45.982;8.890;2023-02-21T00:27:35;99038.06;;;5.97;70.95
49949;BME280;35840;45.982;8.890;2023-02-21T00:30:20;99023.22;;;5.81;70.97
49949;BME280;35840;45.982;8.890;2023-02-21T00:33:06;99025.91;;;5.77;71.84
49949;BME280;35840;45.982;8.890;2023-02-21T00:35:51;99023.34;;;5.77;72.11
49949;BME280;35840;45.982;8.890;2023-02-21T00:38:36;99027.25;;;5.89;70.90
49949;BME280;35840;45.982;8.890;2023-02-21T00:41:22;99023.19;;;5.83;71.14
49949;BME280;35840;45.982;8.890;2023-02-21T00:44:07;99024.06;;;5.82;71.19
49949;BME280;35840;45.982;8.890;2023-02-21T00:46:53;99021.69;;;5.76;71.44
49949;BME280;35840;45.982;8.890;2023-02-21T00:49:38;99020.44;;;5.61;73.27
49949;BME280;35840;45.982;8.890;2023-02-21T00:52:23;99011.84;;;5.63;72.98
49949;BME280;35840;45.982;8.890;2023-02-21T00:55:09;99005.84;;;5.66;71.87
49949;BME280;35840;45.982;8.890;2023-02-21T00:57:54;99013.44;;;5.67;71.62
49949;BME280;35840;45.982;8.890;2023-02-21T01:00:39;99009.41;;;5.60;71.64
49949;BME280;35840;45.982;8.890;2023-02-21T01:03:24;99016.09;;;5.64;71.82
49949;BME280;35840;45.982;8.890;2023-02-21T01:06:11;99001.75;;;5.60;71.55
49949;BME280;35840;45.982;8.890;2023-02-21T01:08:56;98997.09;;;5.45;71.50
49949;BME280;35840;45.982;8.890;2023-02-21T01:11:41;98998.53;;;5.54;71.64
49949;BME280;35840;45.982;8.890;2023-02-21T01:14:28;99001.03;;;5.55;71.12
49949;BME280;35840;45.982;8.890;2023-02-21T01:17:13;99005.44;;;5.50;71.74
49949;BME280;35840;45.982;8.890;2023-02-21T01:19:59;98987.50;;;5.53;70.75
49949;BME280;35840;45.982;8.890;2023-02-21T01:22:46;99009.88;;;5.43;70.83
49949;BME280;35840;45.982;8.890;2023-02-21T01:25:31;99002.59;;;5.31;71.85
49949;BME280;35840;45.982;8.890;2023-02-21T01:28:16;98999.56;;;5.18;72.60
49949;BME280;35840;45.982;8.890;2023-02-21T01:31:02;98994.34;;;5.21;72.80
49949;BME280;35840;45.982;8.890;2023-02-21T01:33:47;98996.78;;;5.26;74.20
49949;BME280;35840;45.982;8.890;2023-02-21T01:36:32;98994.78;;;5.35;74.19
49949;BME280;35840;45.982;8.890;2023-02-21T01:39:19;98982.03;;;5.35;72.04
49949;BME280;35840;45.982;8.890;2023-02-21T01:42:05;98986.19;;;5.40;70.99
49949;BME280;35840;45.982;8.890;2023-02-21T01:48:02;98974.44;;;5.34;72.03
49949;BME280;35840;45.982;8.890;2023-02-21T01:50:48;98977.13;;;5.29;72.52
49949;BME280;35840;45.982;8.890;2023-02-21T01:53:34;98971.69;;;5.12;72.79
49949;BME280;35840;45.982;8.890;2023-02-21T01:56:20;98978.19;;;5.22;72.33
49949;BME280;35840;45.982;8.890;2023-02-21T01:59:06;98967.94;;;5.24;72.03
49949;BME280;35840;45.982;8.890;2023-02-21T02:04:59;98970.75;;;5.16;72.51
49949;BME280;35840;45.982;8.890;2023-02-21T02:07:45;98967.38;;;5.14;72.40
49949;BME280;35840;45.982;8.890;2023-02-21T02:10:30;98974.16;;;5.15;73.20
49949;BME280;35840;45.982;8.890;2023-02-21T02:30:00;98967.47;;;5.11;71.63
49949;BME280;35840;45.982;8.890;2023-02-21T02:38:46;98956.13;;;4.91;72.72
49949;BME280;35840;45.982;8.890;2023-02-21T02:44:25;98960.34;;;4.92;73.20
49949;BME280;35840;45.982;8.890;2023-02-21T02:46:59;98962.03;;;4.93;72.57
49949;BME280;35840;45.982;8.890;2023-02-21T02:49:29;98973.81;;;4.96;71.36
49949;BME280;35840;45.982;8.890;2023-02-21T02:52:03;98969.56;;;4.96;70.76
49949;BME280;35840;45.982;8.890;2023-02-21T02:54:31;98969.66;;;4.93;71.76
49949;BME280;35840;45.982;8.890;2023-02-21T02:56:59;98968.94;;;4.88;71.10
49949;BME280;35840;45.982;8.890;2023-02-21T02:59:29;98964.81;;;4.84;71.57
49949;BME280;35840;45.982;8.890;2023-02-21T03:02:16;98967.31;;;4.86;71.98
49949;BME280;35840;45.982;8.890;2023-02-21T03:10:38;98960.63;;;4.81;71.10
49949;BME280;35840;45.982;8.890;2023-02-21T03:18:48;98963.75;;;4.91;70.66
49949;BME280;35840;45.982;8.890;2023-02-21T03:21:23;98954.81;;;4.78;71.55
49949;BME280;35840;45.982;8.890;2023-02-21T03:23:53;98944.94;;;4.65;72.66
49949;BME280;35840;45.982;8.890;2023-02-21T03:26:25;98942.47;;;4.62;72.75
49949;BME280;35840;45.982;8.890;2023-02-21T03:28:58;98939.88;;;4.64;72.63
49949;BME280;35840;45.982;8.890;2023-02-21T03:31:31;98942.38;;;4.65;72.67
49949;BME280;35840;45.982;8.890;2023-02-21T03:34:01;98934.88;;;4.61;72.24
49949;BME280;35840;45.982;8.890;2023-02-21T03:36:27;98934.91;;;4.59;72.02
49949;BME280;35840;45.982;8.890;2023-02-21T03:38:55;98941.44;;;4.70;72.24
49949;BME280;35840;45.982;8.890;2023-02-21T03:41:23;98936.25;;;4.73;71.58
49949;BME280;35840;45.982;8.890;2023-02-21T03:43:50;98928.66;;;4.71;70.35
49949;BME280;35840;45.982;8.890;2023-02-21T03:46:17;98935.66;;;4.63;71.94
49949;BME280;35840;45.982;8.890;2023-02-21T03:48:44;98938.16;;;4.64;72.35
49949;BME280;35840;45.982;8.890;2023-02-21T03:51:18;98933.06;;;4.64;71.33
49949;BME280;35840;45.982;8.890;2023-02-21T03:53:46;98938.28;;;4.60;71.77
49949;BME280;35840;45.982;8.890;2023-02-21T03:56:17;98933.84;;;4.68;71.79
49949;BME280;35840;45.982;8.890;2023-02-21T03:59:03;98931.38;;;4.63;71.80
49949;BME280;35840;45.982;8.890;2023-02-21T04:01:30;98935.75;;;4.60;71.68
49949;BME280;35840;45.982;8.890;2023-02-21T04:03:58;98929.84;;;4.58;71.83
49949;BME280;35840;45.982;8.890;2023-02-21T04:06:25;98937.78;;;4.47;71.83
49949;BME280;35840;45.982;8.890;2023-02-21T04:08:53;98932.78;;;4.44;71.79
49949;BME280;35840;45.982;8.890;2023-02-21T04:11:21;98901.72;;;4.29;71.93
49949;BME280;35840;45.982;8.890;2023-02-21T04:13:50;98928.59;;;4.41;72.75
49949;BME280;35840;45.982;8.890;2023-02-21T04:16:17;98944.50;;;4.50;71.98
49949;BME280;35840;45.982;8.890;2023-02-21T04:18:44;98943.19;;;4.35;72.58
49949;BME280;35840;45.982;8.890;2023-02-21T04:21:18;98947.50;;;4.33;72.26
49949;BME280;35840;45.982;8.890;2023-02-21T04:23:48;98944.81;;;4.37;72.32
49949;BME280;35840;45.982;8.890;2023-02-21T04:26:17;98944.06;;;4.34;72.64
49949;BME280;35840;45.982;8.890;2023-02-21T04:28:49;98947.50;;;4.33;72.73
49949;BME280;35840;45.982;8.890;2023-02-21T04:31:17;98936.16;;;4.44;71.47
49949;BME280;35840;45.982;8.890;2023-02-21T04:33:44;98923.72;;;4.32;71.83
49949;BME280;35840;45.982;8.890;2023-02-21T04:36:15;98943.81;;;4.43;72.09
49949;BME280;35840;45.982;8.890;2023-02-21T04:38:43;98940.91;;;4.25;72.25
49949;BME280;35840;45.982;8.890;2023-02-21T04:41:10;98932.53;;;4.20;72.71
49949;BME280;35840;45.982;8.890;2023-02-21T04:43:37;98934.03;;;4.27;72.26
49949;BME280;35840;45.982;8.890;2023-02-21T04:46:04;98928.81;;;4.32;71.36
49949;BME280;35840;45.982;8.890;2023-02-21T04:48:31;98927.13;;;4.33;71.14
49949;BME280;35840;45.982;8.890;2023-02-21T04:50:57;98940.81;;;4.28;71.41
49949;BME280;35840;45.982;8.890;2023-02-21T04:53:39;98923.34;;;4.14;71.74
49949;BME280;35840;45.982;8.890;2023-02-21T04:56:06;98933.25;;;4.25;72.02
49949;BME280;35840;45.982;8.890;2023-02-21T04:58:32;98931.66;;;4.21;72.27
49949;BME280;35840;45.982;8.890;2023-02-21T05:01:11;98919.19;;;4.10;73.23
49949;BME280;35840;45.982;8.890;2023-02-21T05:03:39;98923.28;;;4.16;72.89
49949;BME280;35840;45.982;8.890;2023-02-21T05:06:06;98920.53;;;4.24;71.82
49949;BME280;35840;45.982;8.890;2023-02-21T05:08:34;98919.63;;;4.26;71.51
49949;BME280;35840;45.982;8.890;2023-02-21T05:11:01;98918.03;;;4.22;71.93
49949;BME280;35840;45.982;8.890;2023-02-21T05:13:28;98916.41;;;4.21;72.09
49949;BME280;35840;45.982;8.890;2023-02-21T05:15:55;98920.72;;;4.18;71.28
49949;BME280;35840;45.982;8.890;2023-02-21T05:18:21;98908.78;;;4.20;72.23
49949;BME280;35840;45.982;8.890;2023-02-21T05:20:48;98908.97;;;4.12;72.91
49949;BME280;35840;45.982;8.890;2023-02-21T05:23:16;98914.97;;;4.09;72.69
49949;BME280;35840;45.982;8.890;2023-02-21T05:25:44;98914.03;;;4.13;72.01
49949;BME280;35840;45.982;8.890;2023-02-21T05:28:11;98912.34;;;4.14;71.93
49949;BME280;35840;45.982;8.890;2023-02-21T05:30:37;98908.25;;;4.08;72.28
49949;BME280;35840;45.982;8.890;2023-02-21T05:33:04;98911.44;;;4.15;71.06
49949;BME280;35840;45.982;8.890;2023-02-21T05:35:31;98914.22;;;4.06;71.13
49949;BME280;35840;45.982;8.890;2023-02-21T05:37:58;98914.41;;;3.98;71.61
49949;BME280;35840;45.982;8.890;2023-02-21T05:40:24;98913.75;;;3.91;72.55
49949;BME280;35840;45.982;8.890;2023-02-21T05:42:51;98911.06;;;3.96;72.99
49949;BME280;35840;45.982;8.890;2023-02-21T05:45:17;98919.50;;;3.98;74.80
49949;BME280;35840;45.982;8.890;2023-02-21T05:47:44;98912.56;;;4.05;74.17
49949;BME280;35840;45.982;8.890;2023-02-21T05:50:11;98905.78;;;4.04;72.96
49949;BME280;35840;45.982;8.890;2023-02-21T05:52:37;98913.47;;;4.02;71.92
49949;BME280;35840;45.982;8.890;2023-02-21T05:55:04;98908.53;;;3.96;72.24
49949;BME280;35840;45.982;8.890;2023-02-21T05:57:37;98914.38;;;4.00;72.56
49949;BME280;35840;45.982;8.890;2023-02-21T06:00:04;98917.81;;;3.99;72.72
49949;BME280;35840;45.982;8.890;2023-02-21T06:02:37;98923.84;;;3.94;73.45
49949;BME280;35840;45.982;8.890;2023-02-21T06:05:04;98918.00;;;3.89;73.07
49949;BME280;35840;45.982;8.890;2023-02-21T06:07:30;98916.19;;;3.94;73.37
49949;BME280;35840;45.982;8.890;2023-02-21T06:09:57;98920.31;;;4.00;73.00
49949;BME280;35840;45.982;8.890;2023-02-21T06:12:24;98921.09;;;4.02;71.85
49949;BME280;35840;45.982;8.890;2023-02-21T06:14:50;98920.34;;;3.99;72.02
49949;BME280;35840;45.982;8.890;2023-02-21T06:17:17;98914.44;;;3.96;72.21
49949;BME280;35840;45.982;8.890;2023-02-21T06:19:44;98926.25;;;3.99;72.62
49949;BME280;35840;45.982;8.890;2023-02-21T06:22:10;98927.09;;;4.00;73.13
49949;BME280;35840;45.982;8.890;2023-02-21T06:24:37;98921.22;;;3.97;74.38
49949;BME280;35840;45.982;8.890;2023-02-21T06:27:04;98916.66;;;4.10;73.02
49949;BME280;35840;45.982;8.890;2023-02-21T06:29:31;98926.31;;;3.97;73.10
49949;BME280;35840;45.982;8.890;2023-02-21T06:31:59;98930.72;;;3.89;73.30
49949;BME280;35840;45.982;8.890;2023-02-21T06:34:27;98932.38;;;3.92;73.90
49949;BME280;35840;45.982;8.890;2023-02-21T06:36:54;98928.19;;;3.89;74.05
49949;BME280;35840;45.982;8.890;2023-02-21T06:39:22;98929.78;;;3.93;73.96
49949;BME280;35840;45.982;8.890;2023-02-21T06:41:49;98930.34;;;4.05;73.67
49949;BME280;35840;45.982;8.890;2023-02-21T06:44:16;98932.91;;;4.05;73.66
49949;BME280;35840;45.982;8.890;2023-02-21T06:46:43;98940.63;;;4.02;73.90
49949;BME280;35840;45.982;8.890;2023-02-21T06:49:09;98943.88;;;4.07;74.37
49949;BME280;35840;45.982;8.890;2023-02-21T06:51:38;98949.13;;;4.01;74.88
49949;BME280;35840;45.982;8.890;2023-02-21T06:54:06;98938.22;;;3.95;74.79
49949;BME280;35840;45.982;8.890;2023-02-21T06:56:36;98934.66;;;4.03;75.32
49949;BME280;35840;45.982;8.890;2023-02-21T06:59:04;98934.50;;;4.09;75.15
49949;BME280;35840;45.982;8.890;2023-02-21T07:01:31;98941.22;;;4.11;74.84
49949;BME280;35840;45.982;8.890;2023-02-21T07:03:57;98937.78;;;4.12;75.13
49949;BME280;35840;45.982;8.890;2023-02-21T07:06:24;98942.88;;;4.14;76.48
49949;BME280;35840;45.982;8.890;2023-02-21T07:08:54;98948.53;;;4.25;76.38
49949;BME280;35840;45.982;8.890;2023-02-21T07:11:21;98950.13;;;4.28;76.50
49949;BME280;35840;45.982;8.890;2023-02-21T07:13:52;98952.72;;;4.26;77.28
49949;BME280;35840;45.982;8.890;2023-02-21T07:16:19;98960.25;;;4.31;77.78
49949;BME280;35840;45.982;8.890;2023-02-21T07:18:46;98951.91;;;4.26;78.12
49949;BME280;35840;45.982;8.890;2023-02-21T07:21:13;98960.81;;;4.42;78.53
49949;BME280;35840;45.982;8.890;2023-02-21T07:23:45;98947.31;;;4.39;78.79
49949;BME280;35840;45.982;8.890;2023-02-21T07:26:12;98967.66;;;4.40;78.90
49949;BME280;35840;45.982;8.890;2023-02-21T07:28:39;98968.38;;;4.45;79.52
49949;BME280;35840;45.982;8.890;2023-02-21T07:31:06;98966.69;;;4.44;79.23
49949;BME280;35840;45.982;8.890;2023-02-21T07:33:33;98959.97;;;4.42;79.46
49949;BME280;35840;45.982;8.890;2023-02-21T07:36:00;98964.19;;;4.43;79.74
49949;BME280;35840;45.982;8.890;2023-02-21T07:38:28;98967.47;;;4.46;80.11
49949;BME280;35840;45.982;8.890;2023-02-21T07:41:00;98970.59;;;4.58;81.16
49949;BME280;35840;45.982;8.890;2023-02-21T07:43:29;98957.53;;;4.70;80.81
49949;BME280;35840;45.982;8.890;2023-02-21T07:45:56;98958.16;;;4.78;81.85
49949;BME280;35840;45.982;8.890;2023-02-21T07:48:23;98963.13;;;4.83;82.57
49949;BME280;35840;45.982;8.890;2023-02-21T07:50:50;98953.84;;;4.80;82.82
49949;BME280;35840;45.982;8.890;2023-02-21T07:53:17;98962.50;;;4.75;82.66
49949;BME280;35840;45.982;8.890;2023-02-21T07:55:44;98957.16;;;4.84;82.71
49949;BME280;35840;45.982;8.890;2023-02-21T07:58:10;98954.44;;;4.90;82.76
49949;BME280;35840;45.982;8.890;2023-02-21T08:00:37;98962.94;;;4.91;83.64
49949;BME280;35840;45.982;8.890;2023-02-21T08:03:06;98956.78;;;4.98;83.62
49949;BME280;35840;45.982;8.890;2023-02-21T08:05:32;98952.47;;;5.00;83.06
49949;BME280;35840;45.982;8.890;2023-02-21T08:07:59;98952.53;;;4.98;82.97
49949;BME280;35840;45.982;8.890;2023-02-21T08:10:26;98956.69;;;5.01;82.71
49949;BME280;35840;45.982;8.890;2023-02-21T08:12:53;98938.88;;;5.01;82.08
49949;BME280;35840;45.982;8.890;2023-02-21T08:15:20;98946.22;;;5.12;82.80
49949;BME280;35840;45.982;8.890;2023-02-21T08:17:49;98954.50;;;5.18;83.32
49949;BME280;35840;45.982;8.890;2023-02-21T08:20:16;98947.56;;;5.24;83.27
49949;BME280;35840;45.982;8.890;2023-02-21T08:22:43;98944.91;;;5.27;83.21
49949;BME280;35840;45.982;8.890;2023-02-21T08:25:11;98944.72;;;5.34;82.73
49949;BME280;35840;45.982;8.890;2023-02-21T08:27:39;98939.81;;;5.27;82.84
49949;BME280;35840;45.982;8.890;2023-02-21T08:30:07;98949.75;;;5.36;82.39
49949;BME280;35840;45.982;8.890;2023-02-21T08:32:35;98951.56;;;5.32;83.34
49949;BME280;35840;45.982;8.890;2023-02-21T08:35:02;98943.06;;;5.32;83.34
49949;BME280;35840;45.982;8.890;2023-02-21T08:37:34;98943.91;;;5.32;83.45
49949;BME280;35840;45.982;8.890;2023-02-21T08:40:03;98945.53;;;5.35;83.84
49949;BME280;35840;45.982;8.890;2023-02-21T08:42:29;98937.84;;;5.37;84.65
49949;BME280;35840;45.982;8.890;2023-02-21T08:44:56;98947.25;;;5.34;85.86
49949;BME280;35840;45.982;8.890;2023-02-21T08:47:23;98942.16;;;5.34;85.56
49949;BME280;35840;45.982;8.890;2023-02-21T08:49:49;98941.81;;;5.45;84.93
49949;BME280;35840;45.982;8.890;2023-02-21T08:52:18;98941.59;;;5.53;85.18
49949;BME280;35840;45.982;8.890;2023-02-21T08:54:45;98938.41;;;5.46;85.10
49949;BME280;35840;45.982;8.890;2023-02-21T08:57:12;98928.34;;;5.42;85.83
49949;BME280;35840;45.982;8.890;2023-02-21T08:59:40;98922.28;;;5.46;85.05
49949;BME280;35840;45.982;8.890;2023-02-21T09:02:16;98927.19;;;5.52;85.33
49949;BME280;35840;45.982;8.890;2023-02-21T09:04:45;98910.28;;;5.48;85.16
49949;BME280;35840;45.982;8.890;2023-02-21T09:07:15;98923.41;;;5.64;84.66
49949;BME280;35840;45.982;8.890;2023-02-21T09:09:43;98917.56;;;5.60;84.79
49949;BME280;35840;45.982;8.890;2023-02-21T09:12:10;98919.88;;;5.68;84.23
49949;BME280;35840;45.982;8.890;2023-02-21T09:14:39;98913.56;;;5.80;84.41
49949;BME280;35840;45.982;8.890;2023-02-21T09:17:09;98916.03;;;5.83;84.61
49949;BME280;35840;45.982;8.890;2023-02-21T09:19:36;98904.13;;;5.82;84.54
49949;BME280;35840;45.982;8.890;2023-02-21T09:22:06;98918.25;;;5.92;83.92
49949;BME280;35840;45.982;8.890;2023-02-21T09:24:32;98911.28;;;5.99;83.67
49949;BME280;35840;45.982;8.890;2023-02-21T09:26:59;98904.91;;;6.11;84.15
49949;BME280;35840;45.982;8.890;2023-02-21T09:29:30;98914.16;;;6.15;84.70
49949;BME280;35840;45.982;8.890;2023-02-21T09:32:11;98905.78;;;6.36;85.97
49949;BME280;35840;45.982;8.890;2023-02-21T09:34:38;98909.41;;;6.29;84.72
49949;BME280;35840;45.982;8.890;2023-02-21T09:37:05;98906.81;;;6.31;84.60
49949;BME280;35840;45.982;8.890;2023-02-21T09:39:32;98899.72;;;6.39;84.03
49949;BME280;35840;45.982;8.890;2023-02-21T09:41:58;98904.81;;;6.39;83.98
49949;BME280;35840;45.982;8.890;2023-02-21T09:44:26;98908.34;;;6.36;82.72
49949;BME280;35840;45.982;8.890;2023-02-21T09:46:59;98904.88;;;6.37;82.70
49949;BME280;35840;45.982;8.890;2023-02-21T09:49:31;98899.66;;;6.41;81.54
49949;BME280;35840;45.982;8.890;2023-02-21T09:51:59;98892.00;;;6.41;81.47
49949;BME280;35840;45.982;8.890;2023-02-21T09:54:30;98898.72;;;6.43;81.79
49949;BME280;35840;45.982;8.890;2023-02-21T09:57:01;98888.25;;;6.51;82.22
49949;BME280;35840;45.982;8.890;2023-02-21T09:59:29;98871.31;;;6.48;82.32
49949;BME280;35840;45.982;8.890;2023-02-21T10:02:46;98877.69;;;6.60;82.20
49949;BME280;35840;45.982;8.890;2023-02-21T10:10:49;98873.38;;;7.08;83.35
49949;BME280;35840;45.982;8.890;2023-02-21T10:13:40;98870.19;;;7.25;82.14
49949;BME280;35840;45.982;8.890;2023-02-21T10:16:16;98868.88;;;7.37;81.99
49949;BME280;35840;45.982;8.890;2023-02-21T10:21:43;98854.59;;;7.53;81.59
49949;BME280;35840;45.982;8.890;2023-02-21T10:24:17;98853.56;;;7.80;82.47
49949;BME280;35840;45.982;8.890;2023-02-21T10:26:51;98854.88;;;7.88;81.41
49949;BME280;35840;45.982;8.890;2023-02-21T10:29:25;98843.88;;;8.07;81.10
49949;BME280;35840;45.982;8.890;2023-02-21T10:31:59;98849.16;;;8.23;82.02
49949;BME280;35840;45.982;8.890;2023-02-21T10:34:30;98847.25;;;8.28;81.82
49949;BME280;35840;45.982;8.890;2023-02-21T10:37:12;98847.16;;;8.50;81.03
49949;BME280;35840;45.982;8.890;2023-02-21T10:39:47;98844.00;;;8.64;80.16
49949;BME280;35840;45.982;8.890;2023-02-21T10:42:27;98837.91;;;8.67;80.80
49949;BME280;35840;45.982;8.890;2023-02-21T10:44:56;98834.38;;;8.69;80.35
49949;BME280;35840;45.982;8.890;2023-02-21T10:50:12;98829.44;;;8.84;79.10
49949;BME280;35840;45.982;8.890;2023-02-21T10:52:49;98821.53;;;8.88;79.96
49949;BME280;35840;45.982;8.890;2023-02-21T10:55:22;98826.31;;;8.96;78.95
49949;BME280;35840;45.982;8.890;2023-02-21T10:58:08;98818.97;;;9.07;78.52
49949;BME280;35840;45.982;8.890;2023-02-21T11:00:36;98816.91;;;9.14;78.05
49949;BME280;35840;45.982;8.890;2023-02-21T11:03:23;98820.81;;;9.23;77.87
49949;BME280;35840;45.982;8.890;2023-02-21T11:05:55;98819.00;;;9.25;77.22
49949;BME280;35840;45.982;8.890;2023-02-21T11:08:38;98818.25;;;9.40;77.41
49949;BME280;35840;45.982;8.890;2023-02-21T11:11:06;98814.25;;;9.35;77.05
49949;BME280;35840;45.982;8.890;2023-02-21T11:13:33;98809.78;;;9.38;78.44
49949;BME280;35840;45.982;8.890;2023-02-21T11:16:15;98790.53;;;9.29;77.27
49949;BME280;35840;45.982;8.890;2023-02-21T11:18:43;98788.59;;;9.35;79.34
49949;BME280;35840;45.982;8.890;2023-02-21T11:21:15;98795.38;;;9.53;77.10
49949;BME280;35840;45.982;8.890;2023-02-21T11:23:57;98791.22;;;9.51;77.07
49949;BME280;35840;45.982;8.890;2023-02-21T11:26:36;98784.72;;;9.61;75.93
49949;BME280;35840;45.982;8.890;2023-02-21T11:29:10;98776.25;;;9.76;76.50
49949;BME280;35840;45.982;8.890;2023-02-21T11:31:38;98778.25;;;9.71;75.92
49949;BME280;35840;45.982;8.890;2023-02-21T11:34:08;98775.03;;;9.83;75.96
49949;BME280;35840;45.982;8.890;2023-02-21T11:36:39;98770.34;;;10.09;76.04
49949;BME280;35840;45.982;8.890;2023-02-21T11:39:23;98763.56;;;10.24;74.56
49949;BME280;35840;45.982;8.890;2023-02-21T11:41:59;98755.41;;;10.16;74.40
49949;BME280;35840;45.982;8.890;2023-02-21T11:44:38;98751.84;;;10.19;74.10
49949;BME280;35840;45.982;8.890;2023-02-21T11:47:11;98748.94;;;10.25;75.94
49949;BME280;35840;45.982;8.890;2023-02-21T11:50:19;98739.28;;;10.30;75.83
49949;BME280;35840;45.982;8.890;2023-02-21T11:53:10;98731.38;;;10.33;74.45
49949;BME280;35840;45.982;8.890;2023-02-21T11:55:41;98731.19;;;10.70;73.75
49949;BME280;35840;45.982;8.890;2023-02-21T11:58:30;98722.22;;;10.77;72.79
49949;BME280;35840;45.982;8.890;2023-02-21T12:01:15;98716.88;;;10.80;72.92
49949;BME280;35840;45.982;8.890;2023-02-21T12:04:00;98715.78;;;11.00;73.06
49949;BME280;35840;45.982;8.890;2023-02-21T12:14:59;98693.63;;;11.42;71.08
49949;BME280;35840;45.982;8.890;2023-02-21T12:17:47;98687.59;;;11.58;69.69
49949;BME280;35840;45.982;8.890;2023-02-21T12:23:18;98685.19;;;11.69;70.40
49949;BME280;35840;45.982;8.890;2023-02-21T12:31:26;98662.97;;;11.97;67.94
49949;BME280;35840;45.982;8.890;2023-02-21T12:36:42;98665.81;;;12.07;67.18
49949;BME280;35840;45.982;8.890;2023-02-21T12:39:21;98666.22;;;12.13;66.71
49949;BME280;35840;45.982;8.890;2023-02-21T12:47:19;98649.03;;;12.14;66.14
49949;BME280;35840;45.982;8.890;2023-02-21T12:50:20;98643.34;;;12.36;65.95
49949;BME280;35840;45.982;8.890;2023-02-21T12:55:39;98626.25;;;12.35;65.07
49949;BME280;35840;45.982;8.890;2023-02-21T12:59:05;98634.22;;;12.45;65.19
49949;BME280;35840;45.982;8.890;2023-02-21T13:01:17;98638.06;;;12.52;63.81
49949;BME280;35840;45.982;8.890;2023-02-21T13:06:43;98621.97;;;12.61;63.87
49949;BME280;35840;45.982;8.890;2023-02-21T13:09:23;98600.97;;;12.67;64.04
49949;BME280;35840;45.982;8.890;2023-02-21T13:12:08;98604.91;;;12.73;64.23
49949;BME280;35840;45.982;8.890;2023-02-21T13:15:03;98604.38;;;12.81;63.34
49949;BME280;35840;45.982;8.890;2023-02-21T13:17:30;98599.53;;;12.76;62.35
49949;BME280;35840;45.982;8.890;2023-02-21T13:20:03;98584.44;;;12.70;63.52
49949;BME280;35840;45.982;8.890;2023-02-21T13:22:50;98594.88;;;12.81;62.93
49949;BME280;35840;45.982;8.890;2023-02-21T13:25:43;98590.47;;;12.83;63.30
49949;BME280;35840;45.982;8.890;2023-02-21T13:28:23;98577.78;;;12.93;64.17
49949;BME280;35840;45.982;8.890;2023-02-21T13:30:56;98584.78;;;13.04;64.10
49949;BME280;35840;45.982;8.890;2023-02-21T13:33:26;98583.66;;;13.08;62.58
49949;BME280;35840;45.982;8.890;2023-02-21T13:35:57;98578.09;;;13.01;62.64
49949;BME280;35840;45.982;8.890;2023-02-21T13:38:27;98579.34;;;13.08;61.55
49949;BME280;35840;45.982;8.890;2023-02-21T13:41:07;98578.91;;;13.02;63.18
49949;BME280;35840;45.982;8.890;2023-02-21T13:43:49;98570.75;;;13.08;62.17
49949;BME280;35840;45.982;8.890;2023-02-21T14:10:54;98556.59;;;13.39;61.74
49949;BME280;35840;45.982;8.890;2023-02-21T14:13:45;98555.78;;;13.39;60.17
49949;BME280;35840;45.982;8.890;2023-02-21T14:18:48;98555.16;;;13.35;59.98
49949;BME280;35840;45.982;8.890;2023-02-21T14:23:51;98558.16;;;13.42;60.42
49949;BME280;35840;45.982;8.890;2023-02-21T14:26:49;98549.38;;;13.45;61.22
49949;BME280;35840;45.982;8.890;2023-02-21T14:30:28;98549.88;;;13.50;60.81
49949;BME280;35840;45.982;8.890;2023-02-21T14:35:01;98541.94;;;13.40;60.83
49949;BME280;35840;45.982;8.890;2023-02-21T14:37:44;98542.75;;;13.40;60.28
49949;BME280;35840;45.982;8.890;2023-02-21T14:40:28;98541.31;;;13.36;61.36
49949;BME280;35840;45.982;8.890;2023-02-21T14:46:01;98549.25;;;13.33;60.88
49949;BME280;35840;45.982;8.890;2023-02-21T14:57:50;98543.47;;;13.17;61.72
49949;BME280;35840;45.982;8.890;2023-02-21T15:03:32;98547.41;;;12.97;62.85
49949;BME280;35840;45.982;8.890;2023-02-21T15:06:11;98545.69;;;12.84;63.66
49949;BME280;35840;45.982;8.890;2023-02-21T15:08:48;98547.19;;;12.74;63.63
49949;BME280;35840;45.982;8.890;2023-02-21T15:11:25;98551.13;;;12.67;64.21
49949;BME280;35840;45.982;8.890;2023-02-21T15:14:13;98540.28;;;12.62;65.00
49949;BME280;35840;45.982;8.890;2023-02-21T15:16:43;98546.78;;;12.67;64.44
49949;BME280;35840;45.982;8.890;2023-02-21T15:19:38;98547.19;;;12.74;64.41
49949;BME280;35840;45.982;8.890;2023-02-21T15:22:19;98549.78;;;12.74;63.94
49949;BME280;35840;45.982;8.890;2023-02-21T15:27:22;98549.06;;;12.72;64.36
49949;BME280;35840;45.982;8.890;2023-02-21T15:32:30;98542.25;;;12.71;64.82
49949;BME280;35840;45.982;8.890;2023-02-21T15:34:57;98543.16;;;12.70;64.54
49949;BME280;35840;45.982;8.890;2023-02-21T15:37:26;98538.41;;;12.64;64.30
49949;BME280;35840;45.982;8.890;2023-02-21T15:40:01;98536.75;;;12.63;64.24
49949;BME280;35840;45.982;8.890;2023-02-21T15:42:31;98537.28;;;12.55;64.36
49949;BME280;35840;45.982;8.890;2023-02-21T15:45:04;98537.38;;;12.53;64.32
49949;BME280;35840;45.982;8.890;2023-02-21T15:47:34;98537.66;;;12.49;65.11
49949;BME280;35840;45.982;8.890;2023-02-21T15:50:03;98538.06;;;12.43;65.25
49949;BME280;35840;45.982;8.890;2023-02-21T15:52:39;98533.94;;;12.40;64.37
49949;BME280;35840;45.982;8.890;2023-02-21T15:55:15;98528.16;;;12.23;65.06
49949;BME280;35840;45.982;8.890;2023-02-21T16:00:36;98535.63;;;12.14;65.52
49949;BME280;35840;45.982;8.890;2023-02-21T16:03:29;98537.22;;;12.02;66.13